Pagina principale
METAR-TAF:

METAR-TAF

Aeroporti :

Aeroporto di Napoli-Capodichino

Napoli, Italia

latitudine: 40-51N, longitudine: 014-18E, altezza: 88 m

Osservazione

Il bollettino è stato emesso 23 minuti fa, alle 09:20 UTC
Vento 4 kt da nord/nord-est, variando fra nord/nord-ovest e est/nord-est
Temperature 23°C
Umidità 65%
Pressione 1017 hPa
Visibilità 10 km o più
nessuna nube inferiore a 1500 m e nessun cumulonembo

METAR: LIRN 170920Z 02004KT 340V060 CAVOK 23/16 Q1017 NOSIG

Ora: 11:43 (09:43 UTC)

Previsione

Il bollettino è stato emesso 4 ore e 43 minuti fa, alle 05:00 UTC
Previsione valida dal 17 alle 06 UTC al 18 alle 06 UTC
Vento 5 kt da direzioni variabili
Visibilità 10 km o più
Nubi sparse ad un'altezza di 4000 ft

TAF: LIRN 170500Z 1706/1806 VRB05KT 9999 SCT040

Osservazioni e previsioni meteorologiche di più di 4000 aeroporti (messaggi METAR e TAF).

Le stazioni disponibili sono rappresentate dai dischi gialli e rossi sulla carta.

Puntare il mouse per vedere il nome della stazione.

Clicca sopra per visualizzare le osservazioni e previsioni meteorologiche.

Per cambiare la mappa : fare clic sui pulsanti verdi con una croce nera per ingrandire, il pulsante verde con un trattino per diminuire, o sulla freccia verde per le mappe adiacenti.


METAR-TAF: